sensor_id;sensor_type;location;lat;lon;timestamp;temperature;humidity
49124;DHT22;48506;48.202;16.274;2024-02-26T00:00:04;7.90;94.40
49124;DHT22;48506;48.202;16.274;2024-02-26T00:02:36;7.90;94.40
49124;DHT22;48506;48.202;16.274;2024-02-26T00:05:08;7.90;94.60
49124;DHT22;48506;48.202;16.274;2024-02-26T00:07:34;7.90;94.50
49124;DHT22;48506;48.202;16.274;2024-02-26T00:10:00;7.90;94.60
49124;DHT22;48506;48.202;16.274;2024-02-26T00:12:26;7.90;94.70
49124;DHT22;48506;48.202;16.274;2024-02-26T00:14:52;7.90;94.60
49124;DHT22;48506;48.202;16.274;2024-02-26T00:17:19;7.90;94.80
49124;DHT22;48506;48.202;16.274;2024-02-26T00:19:45;7.80;94.80
49124;DHT22;48506;48.202;16.274;2024-02-26T00:22:11;7.80;94.90
49124;DHT22;48506;48.202;16.274;2024-02-26T00:24:37;7.70;94.80
49124;DHT22;48506;48.202;16.274;2024-02-26T00:27:03;7.70;94.80
49124;DHT22;48506;48.202;16.274;2024-02-26T00:29:29;7.70;95.00
49124;DHT22;48506;48.202;16.274;2024-02-26T00:31:54;7.60;95.00
49124;DHT22;48506;48.202;16.274;2024-02-26T00:34:20;7.60;95.10
49124;DHT22;48506;48.202;16.274;2024-02-26T00:36:46;7.60;95.10
49124;DHT22;48506;48.202;16.274;2024-02-26T00:39:12;7.50;95.20
49124;DHT22;48506;48.202;16.274;2024-02-26T00:41:39;7.50;95.30
49124;DHT22;48506;48.202;16.274;2024-02-26T00:44:06;7.40;95.30
49124;DHT22;48506;48.202;16.274;2024-02-26T00:46:32;7.40;95.40
49124;DHT22;48506;48.202;16.274;2024-02-26T00:48:58;7.40;95.60
49124;DHT22;48506;48.202;16.274;2024-02-26T00:51:24;7.40;95.60
49124;DHT22;48506;48.202;16.274;2024-02-26T00:53:49;7.40;95.60
49124;DHT22;48506;48.202;16.274;2024-02-26T00:56:15;7.40;95.60
49124;DHT22;48506;48.202;16.274;2024-02-26T00:58:41;7.30;95.60
49124;DHT22;48506;48.202;16.274;2024-02-26T01:01:07;7.30;95.70
49124;DHT22;48506;48.202;16.274;2024-02-26T01:03:33;7.30;95.80
49124;DHT22;48506;48.202;16.274;2024-02-26T01:05:59;7.30;95.90
49124;DHT22;48506;48.202;16.274;2024-02-26T01:08:24;7.20;96.00
49124;DHT22;48506;48.202;16.274;2024-02-26T01:10:50;7.20;96.00
49124;DHT22;48506;48.202;16.274;2024-02-26T01:13:16;7.30;96.00
49124;DHT22;48506;48.202;16.274;2024-02-26T01:15:42;7.30;95.90
49124;DHT22;48506;48.202;16.274;2024-02-26T01:18:09;7.20;95.80
49124;DHT22;48506;48.202;16.274;2024-02-26T01:20:35;7.20;95.80
49124;DHT22;48506;48.202;16.274;2024-02-26T01:23:02;7.20;96.00
49124;DHT22;48506;48.202;16.274;2024-02-26T01:25:28;7.20;96.20
49124;DHT22;48506;48.202;16.274;2024-02-26T01:27:55;7.20;96.40
49124;DHT22;48506;48.202;16.274;2024-02-26T01:30:22;7.20;96.40
49124;DHT22;48506;48.202;16.274;2024-02-26T01:32:47;7.20;96.30
49124;DHT22;48506;48.202;16.274;2024-02-26T01:35:13;7.20;96.30
49124;DHT22;48506;48.202;16.274;2024-02-26T01:37:39;7.20;96.30
49124;DHT22;48506;48.202;16.274;2024-02-26T01:40:06;7.20;96.30
49124;DHT22;48506;48.202;16.274;2024-02-26T01:42:37;7.20;96.30
49124;DHT22;48506;48.202;16.274;2024-02-26T01:45:04;7.20;96.30
49124;DHT22;48506;48.202;16.274;2024-02-26T01:47:33;7.10;96.30
49124;DHT22;48506;48.202;16.274;2024-02-26T01:49:59;7.10;96.30
49124;DHT22;48506;48.202;16.274;2024-02-26T01:52:25;7.10;96.30
49124;DHT22;48506;48.202;16.274;2024-02-26T01:54:51;7.10;96.30
49124;DHT22;48506;48.202;16.274;2024-02-26T01:57:17;7.00;96.30
49124;DHT22;48506;48.202;16.274;2024-02-26T01:59:43;7.00;96.30
49124;DHT22;48506;48.202;16.274;2024-02-26T02:02:10;6.90;96.30
49124;DHT22;48506;48.202;16.274;2024-02-26T02:04:38;6.90;96.30
49124;DHT22;48506;48.202;16.274;2024-02-26T02:07:04;6.90;96.30
49124;DHT22;48506;48.202;16.274;2024-02-26T02:09:31;6.80;96.60
49124;DHT22;48506;48.202;16.274;2024-02-26T02:11:58;6.70;96.90
49124;DHT22;48506;48.202;16.274;2024-02-26T02:14:25;6.70;97.10
49124;DHT22;48506;48.202;16.274;2024-02-26T02:16:51;6.70;97.10
49124;DHT22;48506;48.202;16.274;2024-02-26T02:19:17;6.80;97.10
49124;DHT22;48506;48.202;16.274;2024-02-26T02:21:43;6.80;97.00
49124;DHT22;48506;48.202;16.274;2024-02-26T02:24:09;6.70;97.00
49124;DHT22;48506;48.202;16.274;2024-02-26T02:26:35;6.70;96.80
49124;DHT22;48506;48.202;16.274;2024-02-26T02:29:02;6.60;96.90
49124;DHT22;48506;48.202;16.274;2024-02-26T02:31:28;6.60;97.20
49124;DHT22;48506;48.202;16.274;2024-02-26T02:33:54;6.60;97.40
49124;DHT22;48506;48.202;16.274;2024-02-26T02:36:20;6.60;97.60
49124;DHT22;48506;48.202;16.274;2024-02-26T02:38:49;6.60;97.50
49124;DHT22;48506;48.202;16.274;2024-02-26T02:41:16;6.70;97.50
49124;DHT22;48506;48.202;16.274;2024-02-26T02:43:42;6.70;97.60
49124;DHT22;48506;48.202;16.274;2024-02-26T02:46:08;6.70;97.50
49124;DHT22;48506;48.202;16.274;2024-02-26T02:48:36;6.70;97.40
49124;DHT22;48506;48.202;16.274;2024-02-26T02:51:02;6.70;97.40
49124;DHT22;48506;48.202;16.274;2024-02-26T02:53:28;6.70;97.50
49124;DHT22;48506;48.202;16.274;2024-02-26T02:55:55;6.80;97.50
49124;DHT22;48506;48.202;16.274;2024-02-26T02:58:21;6.80;97.50
49124;DHT22;48506;48.202;16.274;2024-02-26T03:00:46;6.80;97.50
49124;DHT22;48506;48.202;16.274;2024-02-26T03:03:13;6.80;97.40
49124;DHT22;48506;48.202;16.274;2024-02-26T03:05:38;6.90;97.40
49124;DHT22;48506;48.202;16.274;2024-02-26T03:08:05;6.90;97.50
49124;DHT22;48506;48.202;16.274;2024-02-26T03:10:31;6.90;97.40
49124;DHT22;48506;48.202;16.274;2024-02-26T03:12:56;6.90;97.30
49124;DHT22;48506;48.202;16.274;2024-02-26T03:15:22;7.00;97.30
49124;DHT22;48506;48.202;16.274;2024-02-26T03:17:48;7.00;97.30
49124;DHT22;48506;48.202;16.274;2024-02-26T03:20:14;6.90;97.30
49124;DHT22;48506;48.202;16.274;2024-02-26T03:22:40;7.00;97.20
49124;DHT22;48506;48.202;16.274;2024-02-26T03:25:07;7.00;97.30
49124;DHT22;48506;48.202;16.274;2024-02-26T03:27:33;7.00;97.30
49124;DHT22;48506;48.202;16.274;2024-02-26T03:29:58;7.00;97.30
49124;DHT22;48506;48.202;16.274;2024-02-26T03:32:24;7.00;97.30
49124;DHT22;48506;48.202;16.274;2024-02-26T03:34:50;7.00;97.30
49124;DHT22;48506;48.202;16.274;2024-02-26T03:37:19;7.00;97.30
49124;DHT22;48506;48.202;16.274;2024-02-26T03:39:45;7.00;97.20
49124;DHT22;48506;48.202;16.274;2024-02-26T03:42:11;7.00;97.30
49124;DHT22;48506;48.202;16.274;2024-02-26T03:44:37;6.90;97.30
49124;DHT22;48506;48.202;16.274;2024-02-26T03:47:03;6.90;97.30
49124;DHT22;48506;48.202;16.274;2024-02-26T03:49:29;6.90;97.30
49124;DHT22;48506;48.202;16.274;2024-02-26T03:51:55;6.90;97.30
49124;DHT22;48506;48.202;16.274;2024-02-26T03:54:20;6.90;97.30
49124;DHT22;48506;48.202;16.274;2024-02-26T03:56:46;6.90;97.30
49124;DHT22;48506;48.202;16.274;2024-02-26T03:59:12;6.90;97.40
49124;DHT22;48506;48.202;16.274;2024-02-26T04:01:38;6.80;97.30
49124;DHT22;48506;48.202;16.274;2024-02-26T04:04:04;6.80;97.30
49124;DHT22;48506;48.202;16.274;2024-02-26T04:06:30;6.80;97.40
49124;DHT22;48506;48.202;16.274;2024-02-26T04:08:56;6.80;97.40
49124;DHT22;48506;48.202;16.274;2024-02-26T04:11:22;6.80;97.50
49124;DHT22;48506;48.202;16.274;2024-02-26T04:13:47;6.70;97.50
49124;DHT22;48506;48.202;16.274;2024-02-26T04:16:16;6.70;97.50
49124;DHT22;48506;48.202;16.274;2024-02-26T04:18:42;6.70;97.50
49124;DHT22;48506;48.202;16.274;2024-02-26T04:21:08;6.80;97.60
49124;DHT22;48506;48.202;16.274;2024-02-26T04:23:34;6.70;97.50
49124;DHT22;48506;48.202;16.274;2024-02-26T04:26:00;6.70;97.50
49124;DHT22;48506;48.202;16.274;2024-02-26T04:28:26;6.70;97.50
49124;DHT22;48506;48.202;16.274;2024-02-26T04:30:55;6.70;97.50
49124;DHT22;48506;48.202;16.274;2024-02-26T04:33:21;6.70;97.60
49124;DHT22;48506;48.202;16.274;2024-02-26T04:35:47;6.70;97.60
49124;DHT22;48506;48.202;16.274;2024-02-26T04:38:13;6.70;97.60
49124;DHT22;48506;48.202;16.274;2024-02-26T04:40:40;6.70;97.60
49124;DHT22;48506;48.202;16.274;2024-02-26T04:43:05;6.60;97.60
49124;DHT22;48506;48.202;16.274;2024-02-26T04:45:31;6.60;97.70
49124;DHT22;48506;48.202;16.274;2024-02-26T04:47:57;6.50;97.70
49124;DHT22;48506;48.202;16.274;2024-02-26T04:50:23;6.50;97.70
49124;DHT22;48506;48.202;16.274;2024-02-26T04:52:49;6.50;97.70
49124;DHT22;48506;48.202;16.274;2024-02-26T04:55:15;6.50;97.80
49124;DHT22;48506;48.202;16.274;2024-02-26T04:57:40;6.50;97.90
49124;DHT22;48506;48.202;16.274;2024-02-26T05:00:07;6.40;97.90
49124;DHT22;48506;48.202;16.274;2024-02-26T05:02:33;6.40;97.90
49124;DHT22;48506;48.202;16.274;2024-02-26T05:05:07;6.40;98.20
49124;DHT22;48506;48.202;16.274;2024-02-26T05:07:40;6.40;97.90
49124;DHT22;48506;48.202;16.274;2024-02-26T05:10:07;6.40;98.00
49124;DHT22;48506;48.202;16.274;2024-02-26T05:12:33;6.40;98.00
49124;DHT22;48506;48.202;16.274;2024-02-26T05:15:02;6.40;98.00
49124;DHT22;48506;48.202;16.274;2024-02-26T05:17:28;6.40;98.00
49124;DHT22;48506;48.202;16.274;2024-02-26T05:19:54;6.30;98.00
49124;DHT22;48506;48.202;16.274;2024-02-26T05:22:20;6.30;98.10
49124;DHT22;48506;48.202;16.274;2024-02-26T05:24:46;6.30;98.10
49124;DHT22;48506;48.202;16.274;2024-02-26T05:27:11;6.30;98.10
49124;DHT22;48506;48.202;16.274;2024-02-26T05:29:38;6.30;98.10
49124;DHT22;48506;48.202;16.274;2024-02-26T05:32:05;6.30;98.00
49124;DHT22;48506;48.202;16.274;2024-02-26T05:34:31;6.30;98.00
49124;DHT22;48506;48.202;16.274;2024-02-26T05:36:57;6.30;98.20
49124;DHT22;48506;48.202;16.274;2024-02-26T05:39:24;6.30;98.30
49124;DHT22;48506;48.202;16.274;2024-02-26T05:41:49;6.20;98.30
49124;DHT22;48506;48.202;16.274;2024-02-26T05:44:15;6.30;98.40
49124;DHT22;48506;48.202;16.274;2024-02-26T05:46:42;6.20;98.40
49124;DHT22;48506;48.202;16.274;2024-02-26T05:49:08;6.20;98.30
49124;DHT22;48506;48.202;16.274;2024-02-26T05:51:34;6.30;98.40
49124;DHT22;48506;48.202;16.274;2024-02-26T05:54:00;6.30;98.40
49124;DHT22;48506;48.202;16.274;2024-02-26T05:56:26;6.30;98.50
49124;DHT22;48506;48.202;16.274;2024-02-26T05:58:52;6.30;98.50
49124;DHT22;48506;48.202;16.274;2024-02-26T06:01:19;6.30;98.50
49124;DHT22;48506;48.202;16.274;2024-02-26T06:03:45;6.40;98.50
49124;DHT22;48506;48.202;16.274;2024-02-26T06:06:11;6.40;98.40
49124;DHT22;48506;48.202;16.274;2024-02-26T06:08:37;6.40;98.40
49124;DHT22;48506;48.202;16.274;2024-02-26T06:11:06;6.40;98.30
49124;DHT22;48506;48.202;16.274;2024-02-26T06:13:34;6.40;98.40
49124;DHT22;48506;48.202;16.274;2024-02-26T06:16:00;6.40;98.40
49124;DHT22;48506;48.202;16.274;2024-02-26T06:18:26;6.40;98.40
49124;DHT22;48506;48.202;16.274;2024-02-26T06:20:52;6.40;98.50
49124;DHT22;48506;48.202;16.274;2024-02-26T06:23:18;6.50;98.50
49124;DHT22;48506;48.202;16.274;2024-02-26T06:25:44;6.50;98.50
49124;DHT22;48506;48.202;16.274;2024-02-26T06:28:10;6.50;98.60
49124;DHT22;48506;48.202;16.274;2024-02-26T06:30:36;6.60;98.60
49124;DHT22;48506;48.202;16.274;2024-02-26T06:33:02;6.60;98.50
49124;DHT22;48506;48.202;16.274;2024-02-26T06:35:28;6.60;98.50
49124;DHT22;48506;48.202;16.274;2024-02-26T06:37:54;6.70;98.50
49124;DHT22;48506;48.202;16.274;2024-02-26T06:40:20;6.70;98.50
49124;DHT22;48506;48.202;16.274;2024-02-26T06:42:46;6.80;98.40
49124;DHT22;48506;48.202;16.274;2024-02-26T06:45:12;6.80;98.40
49124;DHT22;48506;48.202;16.274;2024-02-26T06:47:38;6.90;98.30
49124;DHT22;48506;48.202;16.274;2024-02-26T06:50:04;7.00;98.30
49124;DHT22;48506;48.202;16.274;2024-02-26T06:52:30;7.00;98.30
49124;DHT22;48506;48.202;16.274;2024-02-26T06:54:56;7.10;98.20
49124;DHT22;48506;48.202;16.274;2024-02-26T06:57:22;7.10;98.20
49124;DHT22;48506;48.202;16.274;2024-02-26T06:59:48;7.20;98.10
49124;DHT22;48506;48.202;16.274;2024-02-26T07:02:14;7.30;98.20
49124;DHT22;48506;48.202;16.274;2024-02-26T07:04:40;7.40;98.10
49124;DHT22;48506;48.202;16.274;2024-02-26T07:07:07;7.40;97.90
49124;DHT22;48506;48.202;16.274;2024-02-26T07:09:33;7.50;97.90
49124;DHT22;48506;48.202;16.274;2024-02-26T07:11:59;7.60;97.90
49124;DHT22;48506;48.202;16.274;2024-02-26T07:14:25;7.70;97.70
49124;DHT22;48506;48.202;16.274;2024-02-26T07:16:51;7.90;97.60
49124;DHT22;48506;48.202;16.274;2024-02-26T07:19:17;8.00;97.50
49124;DHT22;48506;48.202;16.274;2024-02-26T07:21:44;8.10;97.40
49124;DHT22;48506;48.202;16.274;2024-02-26T07:24:10;8.20;97.30
49124;DHT22;48506;48.202;16.274;2024-02-26T07:26:36;8.30;97.10
49124;DHT22;48506;48.202;16.274;2024-02-26T07:29:02;8.30;97.00
49124;DHT22;48506;48.202;16.274;2024-02-26T07:31:29;8.50;97.00
49124;DHT22;48506;48.202;16.274;2024-02-26T07:33:55;8.60;96.80
49124;DHT22;48506;48.202;16.274;2024-02-26T07:36:21;8.70;96.60
49124;DHT22;48506;48.202;16.274;2024-02-26T07:38:47;8.80;96.60
49124;DHT22;48506;48.202;16.274;2024-02-26T07:41:13;9.00;96.50
49124;DHT22;48506;48.202;16.274;2024-02-26T07:43:39;9.10;96.30
49124;DHT22;48506;48.202;16.274;2024-02-26T07:46:07;9.20;96.00
49124;DHT22;48506;48.202;16.274;2024-02-26T07:48:33;9.40;95.90
49124;DHT22;48506;48.202;16.274;2024-02-26T07:51:00;9.40;95.70
49124;DHT22;48506;48.202;16.274;2024-02-26T07:53:26;9.60;95.90
49124;DHT22;48506;48.202;16.274;2024-02-26T07:55:51;9.70;95.60
49124;DHT22;48506;48.202;16.274;2024-02-26T07:58:17;9.80;95.50
49124;DHT22;48506;48.202;16.274;2024-02-26T08:00:43;9.90;95.30
49124;DHT22;48506;48.202;16.274;2024-02-26T08:03:09;10.00;95.20
49124;DHT22;48506;48.202;16.274;2024-02-26T08:05:35;10.00;95.10
49124;DHT22;48506;48.202;16.274;2024-02-26T08:08:01;10.20;95.00
49124;DHT22;48506;48.202;16.274;2024-02-26T08:10:28;10.20;94.80
49124;DHT22;48506;48.202;16.274;2024-02-26T08:12:53;10.30;94.90
49124;DHT22;48506;48.202;16.274;2024-02-26T08:15:19;10.40;94.80
49124;DHT22;48506;48.202;16.274;2024-02-26T08:17:45;10.50;94.60
49124;DHT22;48506;48.202;16.274;2024-02-26T08:20:13;10.50;94.50
49124;DHT22;48506;48.202;16.274;2024-02-26T08:22:39;10.60;94.60
49124;DHT22;48506;48.202;16.274;2024-02-26T08:25:05;10.60;94.80
49124;DHT22;48506;48.202;16.274;2024-02-26T08:27:33;10.70;94.80
49124;DHT22;48506;48.202;16.274;2024-02-26T08:29:58;10.80;94.70
49124;DHT22;48506;48.202;16.274;2024-02-26T08:32:25;10.90;94.70
49124;DHT22;48506;48.202;16.274;2024-02-26T08:34:50;11.00;94.50
49124;DHT22;48506;48.202;16.274;2024-02-26T08:37:17;11.20;94.40
49124;DHT22;48506;48.202;16.274;2024-02-26T08:39:43;11.30;94.30
49124;DHT22;48506;48.202;16.274;2024-02-26T08:42:09;11.40;94.20
49124;DHT22;48506;48.202;16.274;2024-02-26T08:44:35;11.50;94.00
49124;DHT22;48506;48.202;16.274;2024-02-26T08:47:01;11.60;93.90
49124;DHT22;48506;48.202;16.274;2024-02-26T08:49:28;11.70;93.70
49124;DHT22;48506;48.202;16.274;2024-02-26T08:51:54;11.80;93.70
49124;DHT22;48506;48.202;16.274;2024-02-26T08:54:20;11.80;93.40
49124;DHT22;48506;48.202;16.274;2024-02-26T08:56:46;11.90;93.50
49124;DHT22;48506;48.202;16.274;2024-02-26T08:59:11;12.00;93.40
49124;DHT22;48506;48.202;16.274;2024-02-26T09:01:37;12.00;93.30
49124;DHT22;48506;48.202;16.274;2024-02-26T09:04:04;12.20;93.40
49124;DHT22;48506;48.202;16.274;2024-02-26T09:06:30;12.30;93.10
49124;DHT22;48506;48.202;16.274;2024-02-26T09:08:55;12.40;92.70
49124;DHT22;48506;48.202;16.274;2024-02-26T09:11:22;12.50;92.80
49124;DHT22;48506;48.202;16.274;2024-02-26T09:13:48;12.60;92.50
49124;DHT22;48506;48.202;16.274;2024-02-26T09:16:14;12.70;92.70
49124;DHT22;48506;48.202;16.274;2024-02-26T09:18:40;12.90;92.40
49124;DHT22;48506;48.202;16.274;2024-02-26T09:21:07;13.00;92.00
49124;DHT22;48506;48.202;16.274;2024-02-26T09:23:33;13.20;92.30
49124;DHT22;48506;48.202;16.274;2024-02-26T09:26:00;13.30;91.80
49124;DHT22;48506;48.202;16.274;2024-02-26T09:28:26;13.50;91.50
49124;DHT22;48506;48.202;16.274;2024-02-26T09:30:52;13.60;91.60
49124;DHT22;48506;48.202;16.274;2024-02-26T09:33:19;13.70;91.60
49124;DHT22;48506;48.202;16.274;2024-02-26T09:35:45;13.90;91.20
49124;DHT22;48506;48.202;16.274;2024-02-26T09:38:10;14.10;91.10
49124;DHT22;48506;48.202;16.274;2024-02-26T09:40:37;14.20;90.70
49124;DHT22;48506;48.202;16.274;2024-02-26T09:43:05;14.40;90.00
49124;DHT22;48506;48.202;16.274;2024-02-26T09:45:32;14.50;90.20
49124;DHT22;48506;48.202;16.274;2024-02-26T09:48:01;14.60;88.50
49124;DHT22;48506;48.202;16.274;2024-02-26T09:50:28;14.70;88.20
49124;DHT22;48506;48.202;16.274;2024-02-26T09:52:55;14.80;88.10
49124;DHT22;48506;48.202;16.274;2024-02-26T09:55:25;14.90;87.50
49124;DHT22;48506;48.202;16.274;2024-02-26T09:57:52;15.00;87.20
49124;DHT22;48506;48.202;16.274;2024-02-26T10:00:19;15.20;86.70
49124;DHT22;48506;48.202;16.274;2024-02-26T10:02:47;15.30;85.90
49124;DHT22;48506;48.202;16.274;2024-02-26T10:05:18;15.30;85.60
49124;DHT22;48506;48.202;16.274;2024-02-26T10:07:48;15.40;85.60
49124;DHT22;48506;48.202;16.274;2024-02-26T10:10:15;15.40;85.10
49124;DHT22;48506;48.202;16.274;2024-02-26T10:12:41;15.40;85.20
49124;DHT22;48506;48.202;16.274;2024-02-26T10:15:08;15.50;84.40
49124;DHT22;48506;48.202;16.274;2024-02-26T10:17:34;15.60;84.50
49124;DHT22;48506;48.202;16.274;2024-02-26T10:20:16;15.60;83.70
49124;DHT22;48506;48.202;16.274;2024-02-26T10:22:49;15.70;83.40
49124;DHT22;48506;48.202;16.274;2024-02-26T10:25:16;15.80;82.60
49124;DHT22;48506;48.202;16.274;2024-02-26T10:27:42;15.90;82.20
49124;DHT22;48506;48.202;16.274;2024-02-26T10:30:18;16.10;82.40
49124;DHT22;48506;48.202;16.274;2024-02-26T10:32:48;16.20;82.20
49124;DHT22;48506;48.202;16.274;2024-02-26T10:35:18;16.30;81.30
49124;DHT22;48506;48.202;16.274;2024-02-26T10:37:46;16.30;80.50
49124;DHT22;48506;48.202;16.274;2024-02-26T10:40:13;16.30;81.10
49124;DHT22;48506;48.202;16.274;2024-02-26T10:42:41;16.50;81.10
49124;DHT22;48506;48.202;16.274;2024-02-26T10:45:09;16.70;79.80
49124;DHT22;48506;48.202;16.274;2024-02-26T10:47:35;16.80;79.90
49124;DHT22;48506;48.202;16.274;2024-02-26T10:50:06;16.80;80.00
49124;DHT22;48506;48.202;16.274;2024-02-26T10:52:34;16.90;79.40
49124;DHT22;48506;48.202;16.274;2024-02-26T10:55:04;16.90;79.50
49124;DHT22;48506;48.202;16.274;2024-02-26T10:57:35;16.90;79.00
49124;DHT22;48506;48.202;16.274;2024-02-26T11:00:04;17.00;78.30
49124;DHT22;48506;48.202;16.274;2024-02-26T11:02:33;16.90;78.40
49124;DHT22;48506;48.202;16.274;2024-02-26T11:05:03;16.90;79.40
49124;DHT22;48506;48.202;16.274;2024-02-26T11:07:33;17.10;79.90
49124;DHT22;48506;48.202;16.274;2024-02-26T11:10:00;17.40;78.30
49124;DHT22;48506;48.202;16.274;2024-02-26T11:12:29;17.50;78.20
49124;DHT22;48506;48.202;16.274;2024-02-26T11:14:56;17.60;77.90
49124;DHT22;48506;48.202;16.274;2024-02-26T11:17:28;17.70;76.60
49124;DHT22;48506;48.202;16.274;2024-02-26T11:19:59;17.70;76.10
49124;DHT22;48506;48.202;16.274;2024-02-26T11:22:27;17.60;76.30
49124;DHT22;48506;48.202;16.274;2024-02-26T11:24:56;17.60;76.10
49124;DHT22;48506;48.202;16.274;2024-02-26T11:27:30;17.70;76.00
49124;DHT22;48506;48.202;16.274;2024-02-26T11:30:00;17.70;74.70
49124;DHT22;48506;48.202;16.274;2024-02-26T11:32:28;17.80;73.50
49124;DHT22;48506;48.202;16.274;2024-02-26T11:34:56;17.90;73.50
49124;DHT22;48506;48.202;16.274;2024-02-26T11:37:23;17.90;72.00
49124;DHT22;48506;48.202;16.274;2024-02-26T11:39:51;18.00;72.20
49124;DHT22;48506;48.202;16.274;2024-02-26T11:42:17;18.10;70.70
49124;DHT22;48506;48.202;16.274;2024-02-26T11:44:48;18.00;70.60
49124;DHT22;48506;48.202;16.274;2024-02-26T11:47:19;17.90;70.00
49124;DHT22;48506;48.202;16.274;2024-02-26T11:49:45;17.80;69.70
49124;DHT22;48506;48.202;16.274;2024-02-26T11:52:13;17.70;69.50
49124;DHT22;48506;48.202;16.274;2024-02-26T11:54:47;17.60;68.90
49124;DHT22;48506;48.202;16.274;2024-02-26T11:59:50;17.40;69.30
49124;DHT22;48506;48.202;16.274;2024-02-26T12:02:39;17.40;69.40
49124;DHT22;48506;48.202;16.274;2024-02-26T12:05:20;17.30;68.90
49124;DHT22;48506;48.202;16.274;2024-02-26T12:07:53;17.30;69.10
49124;DHT22;48506;48.202;16.274;2024-02-26T12:10:32;17.20;68.60
49124;DHT22;48506;48.202;16.274;2024-02-26T12:13:10;17.10;69.60
49124;DHT22;48506;48.202;16.274;2024-02-26T12:15:45;17.20;70.80
49124;DHT22;48506;48.202;16.274;2024-02-26T12:18:17;17.30;70.40
49124;DHT22;48506;48.202;16.274;2024-02-26T12:20:43;17.30;69.50
49124;DHT22;48506;48.202;16.274;2024-02-26T12:23:15;17.40;69.70
49124;DHT22;48506;48.202;16.274;2024-02-26T12:25:43;17.50;69.40
49124;DHT22;48506;48.202;16.274;2024-02-26T12:28:10;17.60;69.30
49124;DHT22;48506;48.202;16.274;2024-02-26T12:30:36;17.70;69.30
49124;DHT22;48506;48.202;16.274;2024-02-26T12:33:02;17.90;68.20
49124;DHT22;48506;48.202;16.274;2024-02-26T12:35:29;17.90;67.30
49124;DHT22;48506;48.202;16.274;2024-02-26T12:37:58;17.80;68.20
49124;DHT22;48506;48.202;16.274;2024-02-26T12:40:24;17.60;68.00
49124;DHT22;48506;48.202;16.274;2024-02-26T12:42:53;17.50;67.50
49124;DHT22;48506;48.202;16.274;2024-02-26T12:45:21;17.50;68.30
49124;DHT22;48506;48.202;16.274;2024-02-26T12:47:48;17.70;68.30
49124;DHT22;48506;48.202;16.274;2024-02-26T12:50:17;18.10;68.60
49124;DHT22;48506;48.202;16.274;2024-02-26T12:52:45;18.70;68.70
49124;DHT22;48506;48.202;16.274;2024-02-26T12:55:19;19.30;67.40
49124;DHT22;48506;48.202;16.274;2024-02-26T12:57:46;19.70;64.40
49124;DHT22;48506;48.202;16.274;2024-02-26T13:00:18;19.40;64.40
49124;DHT22;48506;48.202;16.274;2024-02-26T13:02:48;19.10;64.90
49124;DHT22;48506;48.202;16.274;2024-02-26T13:05:16;18.70;64.50
49124;DHT22;48506;48.202;16.274;2024-02-26T13:07:45;18.40;64.40
49124;DHT22;48506;48.202;16.274;2024-02-26T13:10:13;18.10;64.80
49124;DHT22;48506;48.202;16.274;2024-02-26T13:12:47;17.80;65.40
49124;DHT22;48506;48.202;16.274;2024-02-26T13:15:22;17.60;66.10
49124;DHT22;48506;48.202;16.274;2024-02-26T13:17:49;17.90;68.00
49124;DHT22;48506;48.202;16.274;2024-02-26T13:20:29;18.20;66.40
49124;DHT22;48506;48.202;16.274;2024-02-26T13:23:06;18.30;65.20
49124;DHT22;48506;48.202;16.274;2024-02-26T13:25:33;18.00;65.30
49124;DHT22;48506;48.202;16.274;2024-02-26T13:28:17;17.70;65.70
49124;DHT22;48506;48.202;16.274;2024-02-26T13:30:56;17.50;65.80
49124;DHT22;48506;48.202;16.274;2024-02-26T13:33:27;17.30;66.30
49124;DHT22;48506;48.202;16.274;2024-02-26T13:35:55;17.20;65.50
49124;DHT22;48506;48.202;16.274;2024-02-26T13:38:23;17.10;66.10
49124;DHT22;48506;48.202;16.274;2024-02-26T13:40:52;17.20;68.00
49124;DHT22;48506;48.202;16.274;2024-02-26T13:43:19;17.40;66.50
49124;DHT22;48506;48.202;16.274;2024-02-26T13:45:46;17.60;65.80
49124;DHT22;48506;48.202;16.274;2024-02-26T13:48:14;17.50;65.20
49124;DHT22;48506;48.202;16.274;2024-02-26T13:50:41;17.20;65.00
49124;DHT22;48506;48.202;16.274;2024-02-26T13:53:12;16.90;66.20
49124;DHT22;48506;48.202;16.274;2024-02-26T13:55:40;16.70;66.10
49124;DHT22;48506;48.202;16.274;2024-02-26T13:58:12;16.60;65.80
49124;DHT22;48506;48.202;16.274;2024-02-26T14:00:40;16.50;67.30
49124;DHT22;48506;48.202;16.274;2024-02-26T14:03:07;16.50;66.90
49124;DHT22;48506;48.202;16.274;2024-02-26T14:05:33;16.50;66.80
49124;DHT22;48506;48.202;16.274;2024-02-26T14:07:59;16.50;66.90
49124;DHT22;48506;48.202;16.274;2024-02-26T14:10:25;16.80;66.70
49124;DHT22;48506;48.202;16.274;2024-02-26T14:12:52;17.20;65.80
49124;DHT22;48506;48.202;16.274;2024-02-26T14:15:17;17.90;65.50
49124;DHT22;48506;48.202;16.274;2024-02-26T14:17:43;18.50;64.00
49124;DHT22;48506;48.202;16.274;2024-02-26T14:20:10;18.80;64.00
49124;DHT22;48506;48.202;16.274;2024-02-26T14:22:36;19.10;62.90
49124;DHT22;48506;48.202;16.274;2024-02-26T14:25:02;18.90;62.30
49124;DHT22;48506;48.202;16.274;2024-02-26T14:27:28;18.60;63.00
49124;DHT22;48506;48.202;16.274;2024-02-26T14:29:54;18.30;63.10
49124;DHT22;48506;48.202;16.274;2024-02-26T14:32:21;17.80;64.30
49124;DHT22;48506;48.202;16.274;2024-02-26T14:34:47;17.40;64.30
49124;DHT22;48506;48.202;16.274;2024-02-26T14:37:13;17.10;64.60
49124;DHT22;48506;48.202;16.274;2024-02-26T14:39:39;16.90;65.00
49124;DHT22;48506;48.202;16.274;2024-02-26T14:42:05;16.70;65.80
49124;DHT22;48506;48.202;16.274;2024-02-26T14:44:32;16.50;65.60
49124;DHT22;48506;48.202;16.274;2024-02-26T14:46:58;16.40;67.00
49124;DHT22;48506;48.202;16.274;2024-02-26T14:49:24;16.30;66.50
49124;DHT22;48506;48.202;16.274;2024-02-26T14:51:50;16.10;66.10
49124;DHT22;48506;48.202;16.274;2024-02-26T14:54:16;15.90;67.00
49124;DHT22;48506;48.202;16.274;2024-02-26T14:56:42;15.80;66.80
49124;DHT22;48506;48.202;16.274;2024-02-26T14:59:08;15.60;67.80
49124;DHT22;48506;48.202;16.274;2024-02-26T15:01:34;15.50;68.20
49124;DHT22;48506;48.202;16.274;2024-02-26T15:04:00;15.40;68.90
49124;DHT22;48506;48.202;16.274;2024-02-26T15:06:26;15.30;68.50
49124;DHT22;48506;48.202;16.274;2024-02-26T15:08:52;15.10;68.80
49124;DHT22;48506;48.202;16.274;2024-02-26T15:11:19;15.10;69.50
49124;DHT22;48506;48.202;16.274;2024-02-26T15:13:45;15.00;70.40
49124;DHT22;48506;48.202;16.274;2024-02-26T15:16:18;14.90;70.30
49124;DHT22;48506;48.202;16.274;2024-02-26T15:18:47;14.80;70.00
49124;DHT22;48506;48.202;16.274;2024-02-26T15:21:14;14.70;70.10
49124;DHT22;48506;48.202;16.274;2024-02-26T15:23:43;14.70;70.30
49124;DHT22;48506;48.202;16.274;2024-02-26T15:26:12;14.60;70.50